sensor_id;sensor_type;location;lat;lon;timestamp;P1;durP1;ratioP1;P2;durP2;ratioP2
51836;SDS011;38941;53.254;6.600;2023-04-15T00:01:14;6.57;;;2.70;;
51836;SDS011;38941;53.254;6.600;2023-04-15T00:03:19;9.70;;;3.00;;
51836;SDS011;38941;53.254;6.600;2023-04-15T00:05:21;7.65;;;3.17;;
51836;SDS011;38941;53.254;6.600;2023-04-15T00:07:23;7.55;;;2.72;;
51836;SDS011;38941;53.254;6.600;2023-04-15T00:09:26;8.77;;;3.13;;
51836;SDS011;38941;53.254;6.600;2023-04-15T00:11:27;8.20;;;3.03;;
51836;SDS011;38941;53.254;6.600;2023-04-15T00:13:28;10.23;;;3.42;;
51836;SDS011;38941;53.254;6.600;2023-04-15T00:15:32;7.35;;;3.17;;
51836;SDS011;38941;53.254;6.600;2023-04-15T00:17:38;9.27;;;2.90;;
51836;SDS011;38941;53.254;6.600;2023-04-15T00:19:41;8.18;;;2.80;;
51836;SDS011;38941;53.254;6.600;2023-04-15T00:21:43;6.60;;;2.97;;
51836;SDS011;38941;53.254;6.600;2023-04-15T00:23:45;9.75;;;3.55;;
51836;SDS011;38941;53.254;6.600;2023-04-15T00:25:51;6.45;;;2.92;;
51836;SDS011;38941;53.254;6.600;2023-04-15T00:27:52;5.15;;;3.08;;
51836;SDS011;38941;53.254;6.600;2023-04-15T00:29:54;7.65;;;2.83;;
51836;SDS011;38941;53.254;6.600;2023-04-15T00:31:56;5.03;;;2.90;;
51836;SDS011;38941;53.254;6.600;2023-04-15T00:33:58;9.70;;;3.17;;
51836;SDS011;38941;53.254;6.600;2023-04-15T00:36:01;8.25;;;3.30;;
51836;SDS011;38941;53.254;6.600;2023-04-15T00:38:03;6.53;;;3.15;;
51836;SDS011;38941;53.254;6.600;2023-04-15T00:40:05;6.10;;;3.45;;
51836;SDS011;38941;53.254;6.600;2023-04-15T00:42:09;6.47;;;3.38;;
51836;SDS011;38941;53.254;6.600;2023-04-15T00:44:11;8.43;;;3.72;;
51836;SDS011;38941;53.254;6.600;2023-04-15T00:46:14;9.43;;;3.58;;
51836;SDS011;38941;53.254;6.600;2023-04-15T00:48:16;9.57;;;3.95;;
51836;SDS011;38941;53.254;6.600;2023-04-15T00:50:18;9.57;;;3.85;;
51836;SDS011;38941;53.254;6.600;2023-04-15T00:52:18;7.05;;;3.35;;
51836;SDS011;38941;53.254;6.600;2023-04-15T00:54:21;7.93;;;3.13;;
51836;SDS011;38941;53.254;6.600;2023-04-15T00:56:24;8.40;;;3.30;;
51836;SDS011;38941;53.254;6.600;2023-04-15T00:58:27;12.80;;;3.78;;
51836;SDS011;38941;53.254;6.600;2023-04-15T01:00:34;7.55;;;3.33;;
51836;SDS011;38941;53.254;6.600;2023-04-15T01:02:36;11.27;;;4.13;;
51836;SDS011;38941;53.254;6.600;2023-04-15T01:04:39;7.32;;;3.75;;
51836;SDS011;38941;53.254;6.600;2023-04-15T01:06:42;9.63;;;3.65;;
51836;SDS011;38941;53.254;6.600;2023-04-15T01:08:43;8.75;;;4.13;;
51836;SDS011;38941;53.254;6.600;2023-04-15T01:10:44;10.60;;;4.20;;
51836;SDS011;38941;53.254;6.600;2023-04-15T01:12:47;6.97;;;3.65;;
51836;SDS011;38941;53.254;6.600;2023-04-15T01:14:48;10.20;;;4.45;;
51836;SDS011;38941;53.254;6.600;2023-04-15T01:16:51;9.05;;;3.95;;
51836;SDS011;38941;53.254;6.600;2023-04-15T01:18:53;8.27;;;4.45;;
51836;SDS011;38941;53.254;6.600;2023-04-15T01:20:55;13.15;;;3.90;;
51836;SDS011;38941;53.254;6.600;2023-04-15T01:22:58;9.73;;;5.05;;
51836;SDS011;38941;53.254;6.600;2023-04-15T01:25:12;7.93;;;4.05;;
51836;SDS011;38941;53.254;6.600;2023-04-15T01:27:27;10.43;;;4.05;;
51836;SDS011;38941;53.254;6.600;2023-04-15T01:29:35;8.27;;;4.05;;
51836;SDS011;38941;53.254;6.600;2023-04-15T01:31:38;11.38;;;4.45;;
51836;SDS011;38941;53.254;6.600;2023-04-15T01:33:40;7.07;;;4.20;;
51836;SDS011;38941;53.254;6.600;2023-04-15T01:35:43;9.60;;;4.65;;
51836;SDS011;38941;53.254;6.600;2023-04-15T01:37:44;6.80;;;4.05;;
51836;SDS011;38941;53.254;6.600;2023-04-15T01:39:46;12.05;;;4.55;;
51836;SDS011;38941;53.254;6.600;2023-04-15T01:41:49;10.07;;;4.70;;
51836;SDS011;38941;53.254;6.600;2023-04-15T01:43:51;9.20;;;4.45;;
51836;SDS011;38941;53.254;6.600;2023-04-15T01:45:53;8.05;;;4.47;;
51836;SDS011;38941;53.254;6.600;2023-04-15T01:47:55;9.73;;;5.10;;
51836;SDS011;38941;53.254;6.600;2023-04-15T01:50:02;13.15;;;5.00;;
51836;SDS011;38941;53.254;6.600;2023-04-15T01:52:04;8.65;;;3.83;;
51836;SDS011;38941;53.254;6.600;2023-04-15T01:54:04;8.35;;;4.38;;
51836;SDS011;38941;53.254;6.600;2023-04-15T01:56:06;8.93;;;4.63;;
51836;SDS011;38941;53.254;6.600;2023-04-15T01:58:07;12.05;;;4.88;;
51836;SDS011;38941;53.254;6.600;2023-04-15T02:00:09;10.60;;;4.82;;
51836;SDS011;38941;53.254;6.600;2023-04-15T02:02:11;11.13;;;4.95;;
51836;SDS011;38941;53.254;6.600;2023-04-15T02:04:12;9.73;;;4.90;;
51836;SDS011;38941;53.254;6.600;2023-04-15T02:06:15;13.68;;;5.70;;
51836;SDS011;38941;53.254;6.600;2023-04-15T02:08:18;8.63;;;4.95;;
51836;SDS011;38941;53.254;6.600;2023-04-15T02:10:19;8.90;;;5.32;;
51836;SDS011;38941;53.254;6.600;2023-04-15T02:12:20;10.48;;;5.03;;
51836;SDS011;38941;53.254;6.600;2023-04-15T02:14:22;10.88;;;6.00;;
51836;SDS011;38941;53.254;6.600;2023-04-15T02:16:23;10.57;;;5.50;;
51836;SDS011;38941;53.254;6.600;2023-04-15T02:18:25;15.77;;;5.40;;
51836;SDS011;38941;53.254;6.600;2023-04-15T02:20:27;9.65;;;5.13;;
51836;SDS011;38941;53.254;6.600;2023-04-15T02:22:31;11.98;;;5.50;;
51836;SDS011;38941;53.254;6.600;2023-04-15T02:24:33;8.50;;;4.78;;
51836;SDS011;38941;53.254;6.600;2023-04-15T02:26:34;10.35;;;5.57;;
51836;SDS011;38941;53.254;6.600;2023-04-15T02:28:37;10.90;;;5.88;;
51836;SDS011;38941;53.254;6.600;2023-04-15T02:30:39;9.65;;;5.32;;
51836;SDS011;38941;53.254;6.600;2023-04-15T02:32:42;10.93;;;5.60;;
51836;SDS011;38941;53.254;6.600;2023-04-15T02:34:45;9.73;;;5.03;;
51836;SDS011;38941;53.254;6.600;2023-04-15T02:36:47;11.02;;;5.80;;
51836;SDS011;38941;53.254;6.600;2023-04-15T02:38:50;9.40;;;5.78;;
51836;SDS011;38941;53.254;6.600;2023-04-15T02:40:53;9.45;;;5.93;;
51836;SDS011;38941;53.254;6.600;2023-04-15T02:42:55;11.40;;;5.85;;
51836;SDS011;38941;53.254;6.600;2023-04-15T02:44:57;10.13;;;5.68;;
51836;SDS011;38941;53.254;6.600;2023-04-15T02:46:59;12.30;;;6.75;;
51836;SDS011;38941;53.254;6.600;2023-04-15T02:49:07;9.80;;;5.63;;
51836;SDS011;38941;53.254;6.600;2023-04-15T02:51:14;10.27;;;6.13;;
51836;SDS011;38941;53.254;6.600;2023-04-15T02:53:18;11.60;;;5.88;;
51836;SDS011;38941;53.254;6.600;2023-04-15T02:55:19;11.27;;;6.32;;
51836;SDS011;38941;53.254;6.600;2023-04-15T02:57:21;12.77;;;6.53;;
51836;SDS011;38941;53.254;6.600;2023-04-15T02:59:22;13.63;;;6.68;;
51836;SDS011;38941;53.254;6.600;2023-04-15T03:01:23;12.13;;;7.00;;
51836;SDS011;38941;53.254;6.600;2023-04-15T03:03:25;10.95;;;5.95;;
51836;SDS011;38941;53.254;6.600;2023-04-15T03:05:31;10.95;;;6.72;;
51836;SDS011;38941;53.254;6.600;2023-04-15T03:07:33;14.60;;;7.15;;
51836;SDS011;38941;53.254;6.600;2023-04-15T03:09:36;16.65;;;7.47;;
51836;SDS011;38941;53.254;6.600;2023-04-15T03:11:39;12.07;;;5.88;;
51836;SDS011;38941;53.254;6.600;2023-04-15T03:13:45;13.73;;;6.68;;
51836;SDS011;38941;53.254;6.600;2023-04-15T03:15:47;12.68;;;6.85;;
51836;SDS011;38941;53.254;6.600;2023-04-15T03:17:54;13.20;;;7.00;;
51836;SDS011;38941;53.254;6.600;2023-04-15T03:19:56;13.43;;;7.25;;
51836;SDS011;38941;53.254;6.600;2023-04-15T03:21:57;15.35;;;8.10;;
51836;SDS011;38941;53.254;6.600;2023-04-15T03:23:59;13.48;;;6.57;;
51836;SDS011;38941;53.254;6.600;2023-04-15T03:26:03;15.45;;;8.48;;
51836;SDS011;38941;53.254;6.600;2023-04-15T03:28:09;13.48;;;6.50;;
51836;SDS011;38941;53.254;6.600;2023-04-15T03:30:10;11.55;;;5.93;;
51836;SDS011;38941;53.254;6.600;2023-04-15T03:32:17;12.40;;;6.82;;
51836;SDS011;38941;53.254;6.600;2023-04-15T03:34:18;12.82;;;7.13;;
51836;SDS011;38941;53.254;6.600;2023-04-15T03:36:21;13.40;;;7.15;;
51836;SDS011;38941;53.254;6.600;2023-04-15T03:38:23;12.48;;;6.35;;
51836;SDS011;38941;53.254;6.600;2023-04-15T03:40:25;10.82;;;6.68;;
51836;SDS011;38941;53.254;6.600;2023-04-15T03:42:28;10.82;;;6.30;;
51836;SDS011;38941;53.254;6.600;2023-04-15T03:44:29;11.80;;;6.20;;
51836;SDS011;38941;53.254;6.600;2023-04-15T03:46:30;15.45;;;6.93;;
51836;SDS011;38941;53.254;6.600;2023-04-15T03:48:32;12.23;;;6.68;;
51836;SDS011;38941;53.254;6.600;2023-04-15T03:50:33;11.80;;;5.93;;
51836;SDS011;38941;53.254;6.600;2023-04-15T03:52:34;13.30;;;6.03;;
51836;SDS011;38941;53.254;6.600;2023-04-15T03:54:36;13.95;;;6.50;;
51836;SDS011;38941;53.254;6.600;2023-04-15T03:56:37;11.63;;;6.85;;
51836;SDS011;38941;53.254;6.600;2023-04-15T03:58:40;14.35;;;6.75;;
51836;SDS011;38941;53.254;6.600;2023-04-15T04:00:41;13.25;;;7.93;;
51836;SDS011;38941;53.254;6.600;2023-04-15T04:02:43;15.60;;;7.75;;
51836;SDS011;38941;53.254;6.600;2023-04-15T04:04:45;14.30;;;6.70;;
51836;SDS011;38941;53.254;6.600;2023-04-15T04:06:47;12.20;;;6.72;;
51836;SDS011;38941;53.254;6.600;2023-04-15T04:08:49;13.57;;;6.90;;
51836;SDS011;38941;53.254;6.600;2023-04-15T04:10:51;13.70;;;6.75;;
51836;SDS011;38941;53.254;6.600;2023-04-15T04:12:54;11.75;;;6.60;;
51836;SDS011;38941;53.254;6.600;2023-04-15T04:14:55;12.95;;;7.43;;
51836;SDS011;38941;53.254;6.600;2023-04-15T04:16:58;12.48;;;7.32;;
51836;SDS011;38941;53.254;6.600;2023-04-15T04:18:59;11.43;;;6.22;;
51836;SDS011;38941;53.254;6.600;2023-04-15T04:21:01;10.93;;;6.32;;
51836;SDS011;38941;53.254;6.600;2023-04-15T04:23:04;13.90;;;6.35;;
51836;SDS011;38941;53.254;6.600;2023-04-15T04:25:10;14.10;;;6.53;;
51836;SDS011;38941;53.254;6.600;2023-04-15T04:27:11;10.35;;;6.30;;
51836;SDS011;38941;53.254;6.600;2023-04-15T04:29:12;13.43;;;7.20;;
51836;SDS011;38941;53.254;6.600;2023-04-15T04:31:16;11.73;;;7.00;;
51836;SDS011;38941;53.254;6.600;2023-04-15T04:33:18;14.43;;;7.20;;
51836;SDS011;38941;53.254;6.600;2023-04-15T04:35:20;14.05;;;6.88;;
51836;SDS011;38941;53.254;6.600;2023-04-15T04:37:21;13.48;;;7.53;;
51836;SDS011;38941;53.254;6.600;2023-04-15T04:39:25;11.80;;;6.47;;
51836;SDS011;38941;53.254;6.600;2023-04-15T04:41:27;13.23;;;6.68;;
51836;SDS011;38941;53.254;6.600;2023-04-15T04:43:29;11.82;;;6.97;;
51836;SDS011;38941;53.254;6.600;2023-04-15T04:45:30;13.82;;;7.13;;
51836;SDS011;38941;53.254;6.600;2023-04-15T04:47:35;13.32;;;7.53;;
51836;SDS011;38941;53.254;6.600;2023-04-15T04:49:38;14.60;;;6.78;;
51836;SDS011;38941;53.254;6.600;2023-04-15T04:51:39;14.18;;;6.72;;
51836;SDS011;38941;53.254;6.600;2023-04-15T04:53:41;11.57;;;5.70;;
51836;SDS011;38941;53.254;6.600;2023-04-15T04:55:44;13.25;;;6.80;;
51836;SDS011;38941;53.254;6.600;2023-04-15T04:57:49;12.95;;;7.03;;
51836;SDS011;38941;53.254;6.600;2023-04-15T04:59:50;14.90;;;6.72;;
51836;SDS011;38941;53.254;6.600;2023-04-15T05:01:52;12.40;;;6.30;;
51836;SDS011;38941;53.254;6.600;2023-04-15T05:03:54;15.55;;;6.65;;
51836;SDS011;38941;53.254;6.600;2023-04-15T05:05:56;13.98;;;7.78;;
51836;SDS011;38941;53.254;6.600;2023-04-15T05:07:58;14.27;;;7.60;;
51836;SDS011;38941;53.254;6.600;2023-04-15T05:10:00;13.25;;;6.65;;
51836;SDS011;38941;53.254;6.600;2023-04-15T05:12:06;12.88;;;6.68;;
51836;SDS011;38941;53.254;6.600;2023-04-15T05:14:09;12.38;;;6.85;;
51836;SDS011;38941;53.254;6.600;2023-04-15T05:16:10;12.40;;;6.95;;
51836;SDS011;38941;53.254;6.600;2023-04-15T05:18:12;12.30;;;6.50;;
51836;SDS011;38941;53.254;6.600;2023-04-15T05:20:15;14.27;;;7.70;;
51836;SDS011;38941;53.254;6.600;2023-04-15T05:22:16;13.68;;;6.85;;
51836;SDS011;38941;53.254;6.600;2023-04-15T05:24:21;15.43;;;7.28;;
51836;SDS011;38941;53.254;6.600;2023-04-15T05:26:22;13.98;;;7.18;;
51836;SDS011;38941;53.254;6.600;2023-04-15T05:28:29;14.60;;;6.93;;
51836;SDS011;38941;53.254;6.600;2023-04-15T05:30:30;13.15;;;7.07;;
51836;SDS011;38941;53.254;6.600;2023-04-15T05:32:32;15.05;;;7.32;;
51836;SDS011;38941;53.254;6.600;2023-04-15T05:34:33;13.85;;;7.43;;
51836;SDS011;38941;53.254;6.600;2023-04-15T05:36:37;10.68;;;5.63;;
51836;SDS011;38941;53.254;6.600;2023-04-15T05:38:40;12.20;;;5.93;;
51836;SDS011;38941;53.254;6.600;2023-04-15T05:40:41;13.88;;;6.18;;
51836;SDS011;38941;53.254;6.600;2023-04-15T05:42:43;10.82;;;6.05;;
51836;SDS011;38941;53.254;6.600;2023-04-15T05:44:45;10.95;;;6.28;;
51836;SDS011;38941;53.254;6.600;2023-04-15T05:46:47;14.15;;;6.30;;
51836;SDS011;38941;53.254;6.600;2023-04-15T05:48:57;12.52;;;6.55;;
51836;SDS011;38941;53.254;6.600;2023-04-15T05:50:59;10.23;;;6.10;;
51836;SDS011;38941;53.254;6.600;2023-04-15T05:53:03;12.85;;;7.55;;
51836;SDS011;38941;53.254;6.600;2023-04-15T05:55:03;12.30;;;6.90;;
51836;SDS011;38941;53.254;6.600;2023-04-15T05:57:06;13.60;;;6.70;;
51836;SDS011;38941;53.254;6.600;2023-04-15T05:59:08;12.70;;;6.88;;
51836;SDS011;38941;53.254;6.600;2023-04-15T06:01:10;12.40;;;7.03;;
51836;SDS011;38941;53.254;6.600;2023-04-15T06:03:11;16.98;;;7.40;;
51836;SDS011;38941;53.254;6.600;2023-04-15T06:05:12;11.82;;;6.70;;
51836;SDS011;38941;53.254;6.600;2023-04-15T06:07:13;13.30;;;7.10;;
51836;SDS011;38941;53.254;6.600;2023-04-15T06:09:15;17.88;;;7.43;;
51836;SDS011;38941;53.254;6.600;2023-04-15T06:11:16;12.20;;;6.50;;
51836;SDS011;38941;53.254;6.600;2023-04-15T06:13:18;14.35;;;7.38;;
51836;SDS011;38941;53.254;6.600;2023-04-15T06:15:19;15.23;;;6.97;;
51836;SDS011;38941;53.254;6.600;2023-04-15T06:17:22;16.63;;;6.70;;
51836;SDS011;38941;53.254;6.600;2023-04-15T06:19:23;17.65;;;8.15;;
51836;SDS011;38941;53.254;6.600;2023-04-15T06:21:24;17.67;;;7.60;;
51836;SDS011;38941;53.254;6.600;2023-04-15T06:23:26;17.10;;;7.45;;
51836;SDS011;38941;53.254;6.600;2023-04-15T06:25:27;14.30;;;6.68;;
51836;SDS011;38941;53.254;6.600;2023-04-15T06:27:28;16.85;;;7.40;;
51836;SDS011;38941;53.254;6.600;2023-04-15T06:29:31;17.20;;;7.50;;
51836;SDS011;38941;53.254;6.600;2023-04-15T06:31:38;14.80;;;7.18;;
51836;SDS011;38941;53.254;6.600;2023-04-15T06:33:41;16.85;;;7.45;;
51836;SDS011;38941;53.254;6.600;2023-04-15T06:35:42;12.65;;;7.13;;
51836;SDS011;38941;53.254;6.600;2023-04-15T06:37:45;14.02;;;6.95;;
51836;SDS011;38941;53.254;6.600;2023-04-15T06:39:47;16.13;;;7.20;;
51836;SDS011;38941;53.254;6.600;2023-04-15T06:41:49;14.27;;;6.93;;
51836;SDS011;38941;53.254;6.600;2023-04-15T06:43:50;12.18;;;6.75;;
51836;SDS011;38941;53.254;6.600;2023-04-15T06:45:51;12.55;;;6.53;;
51836;SDS011;38941;53.254;6.600;2023-04-15T06:47:53;11.95;;;6.63;;
51836;SDS011;38941;53.254;6.600;2023-04-15T06:49:55;15.85;;;7.13;;
51836;SDS011;38941;53.254;6.600;2023-04-15T06:51:55;14.38;;;6.50;;
51836;SDS011;38941;53.254;6.600;2023-04-15T06:53:56;13.68;;;6.18;;
51836;SDS011;38941;53.254;6.600;2023-04-15T06:55:58;13.60;;;6.70;;
51836;SDS011;38941;53.254;6.600;2023-04-15T06:58:06;16.73;;;6.63;;
51836;SDS011;38941;53.254;6.600;2023-04-15T07:00:08;14.98;;;7.03;;
51836;SDS011;38941;53.254;6.600;2023-04-15T07:02:11;13.00;;;6.63;;
51836;SDS011;38941;53.254;6.600;2023-04-15T07:04:14;17.00;;;7.80;;
51836;SDS011;38941;53.254;6.600;2023-04-15T07:06:16;11.63;;;6.28;;
51836;SDS011;38941;53.254;6.600;2023-04-15T07:08:17;11.93;;;6.03;;
51836;SDS011;38941;53.254;6.600;2023-04-15T07:10:27;14.48;;;7.15;;
51836;SDS011;38941;53.254;6.600;2023-04-15T07:12:29;15.05;;;6.60;;
51836;SDS011;38941;53.254;6.600;2023-04-15T07:14:31;12.38;;;6.38;;
51836;SDS011;38941;53.254;6.600;2023-04-15T07:16:32;9.80;;;5.60;;
51836;SDS011;38941;53.254;6.600;2023-04-15T07:18:32;12.48;;;6.63;;
51836;SDS011;38941;53.254;6.600;2023-04-15T07:20:34;12.23;;;5.72;;
51836;SDS011;38941;53.254;6.600;2023-04-15T07:22:37;13.15;;;5.93;;
51836;SDS011;38941;53.254;6.600;2023-04-15T07:24:38;12.77;;;6.60;;
51836;SDS011;38941;53.254;6.600;2023-04-15T07:26:41;14.27;;;6.20;;
51836;SDS011;38941;53.254;6.600;2023-04-15T07:28:42;9.90;;;5.82;;
51836;SDS011;38941;53.254;6.600;2023-04-15T07:30:45;12.48;;;5.55;;
51836;SDS011;38941;53.254;6.600;2023-04-15T07:32:46;13.13;;;5.63;;
51836;SDS011;38941;53.254;6.600;2023-04-15T07:34:48;14.63;;;5.63;;
51836;SDS011;38941;53.254;6.600;2023-04-15T07:36:50;11.75;;;4.80;;
51836;SDS011;38941;53.254;6.600;2023-04-15T07:38:51;10.93;;;4.90;;
51836;SDS011;38941;53.254;6.600;2023-04-15T07:40:52;11.20;;;5.40;;
51836;SDS011;38941;53.254;6.600;2023-04-15T07:42:54;11.75;;;5.45;;
51836;SDS011;38941;53.254;6.600;2023-04-15T07:44:57;8.07;;;4.20;;
51836;SDS011;38941;53.254;6.600;2023-04-15T07:46:58;19.73;;;5.82;;
51836;SDS011;38941;53.254;6.600;2023-04-15T07:48:58;9.60;;;4.80;;
51836;SDS011;38941;53.254;6.600;2023-04-15T07:51:02;10.90;;;4.65;;
51836;SDS011;38941;53.254;6.600;2023-04-15T07:53:08;13.60;;;6.60;;
51836;SDS011;38941;53.254;6.600;2023-04-15T07:55:09;10.13;;;4.78;;
51836;SDS011;38941;53.254;6.600;2023-04-15T07:57:10;10.45;;;4.93;;
51836;SDS011;38941;53.254;6.600;2023-04-15T07:59:11;9.70;;;4.75;;
51836;SDS011;38941;53.254;6.600;2023-04-15T08:01:13;9.20;;;4.65;;
51836;SDS011;38941;53.254;6.600;2023-04-15T08:03:13;6.65;;;3.85;;
51836;SDS011;38941;53.254;6.600;2023-04-15T08:05:16;5.60;;;3.25;;
51836;SDS011;38941;53.254;6.600;2023-04-15T08:07:17;10.02;;;4.35;;
51836;SDS011;38941;53.254;6.600;2023-04-15T08:09:17;8.25;;;4.05;;
51836;SDS011;38941;53.254;6.600;2023-04-15T08:11:18;11.43;;;5.15;;
51836;SDS011;38941;53.254;6.600;2023-04-15T08:13:20;7.15;;;3.85;;
51836;SDS011;38941;53.254;6.600;2023-04-15T08:15:21;9.63;;;4.28;;
51836;SDS011;38941;53.254;6.600;2023-04-15T08:17:23;9.18;;;3.63;;
51836;SDS011;38941;53.254;6.600;2023-04-15T08:19:26;9.95;;;3.25;;
51836;SDS011;38941;53.254;6.600;2023-04-15T08:21:30;9.70;;;3.67;;
51836;SDS011;38941;53.254;6.600;2023-04-15T08:23:31;6.38;;;3.25;;
51836;SDS011;38941;53.254;6.600;2023-04-15T08:25:33;8.75;;;4.05;;
51836;SDS011;38941;53.254;6.600;2023-04-15T08:27:34;6.63;;;3.80;;
51836;SDS011;38941;53.254;6.600;2023-04-15T08:29:37;7.82;;;3.40;;
51836;SDS011;38941;53.254;6.600;2023-04-15T08:31:38;13.57;;;3.47;;
51836;SDS011;38941;53.254;6.600;2023-04-15T08:33:38;6.15;;;3.10;;
51836;SDS011;38941;53.254;6.600;2023-04-15T08:35:40;7.18;;;3.53;;
51836;SDS011;38941;53.254;6.600;2023-04-15T08:37:41;5.03;;;2.65;;
51836;SDS011;38941;53.254;6.600;2023-04-15T08:39:45;5.10;;;2.90;;
51836;SDS011;38941;53.254;6.600;2023-04-15T08:41:55;4.72;;;2.60;;
51836;SDS011;38941;53.254;6.600;2023-04-15T08:44:03;5.68;;;2.58;;
51836;SDS011;38941;53.254;6.600;2023-04-15T08:46:05;10.02;;;3.45;;
51836;SDS011;38941;53.254;6.600;2023-04-15T08:48:08;6.38;;;2.17;;
51836;SDS011;38941;53.254;6.600;2023-04-15T08:50:15;7.53;;;2.00;;
51836;SDS011;38941;53.254;6.600;2023-04-15T08:52:17;5.28;;;2.15;;
51836;SDS011;38941;53.254;6.600;2023-04-15T08:54:19;3.65;;;2.05;;
51836;SDS011;38941;53.254;6.600;2023-04-15T08:56:22;5.55;;;2.08;;
51836;SDS011;38941;53.254;6.600;2023-04-15T08:58:28;2.72;;;1.77;;
51836;SDS011;38941;53.254;6.600;2023-04-15T09:00:29;5.55;;;1.88;;
51836;SDS011;38941;53.254;6.600;2023-04-15T09:02:32;7.18;;;2.22;;
51836;SDS011;38941;53.254;6.600;2023-04-15T09:04:33;8.98;;;2.08;;
51836;SDS011;38941;53.254;6.600;2023-04-15T09:06:34;14.65;;;3.35;;
51836;SDS011;38941;53.254;6.600;2023-04-15T09:08:35;7.35;;;1.60;;
51836;SDS011;38941;53.254;6.600;2023-04-15T09:10:39;5.03;;;1.88;;
51836;SDS011;38941;53.254;6.600;2023-04-15T09:12:39;4.55;;;1.85;;
51836;SDS011;38941;53.254;6.600;2023-04-15T09:14:45;6.15;;;2.03;;
51836;SDS011;38941;53.254;6.600;2023-04-15T09:18:57;3.80;;;2.00;;
51836;SDS011;38941;53.254;6.600;2023-04-15T09:21:11;1.98;;;1.10;;
51836;SDS011;38941;53.254;6.600;2023-04-15T09:23:16;1.92;;;1.23;;
51836;SDS011;38941;53.254;6.600;2023-04-15T09:27:20;3.15;;;1.30;;
51836;SDS011;38941;53.254;6.600;2023-04-15T09:29:23;3.40;;;1.50;;
51836;SDS011;38941;53.254;6.600;2023-04-15T09:31:28;4.65;;;1.95;;
51836;SDS011;38941;53.254;6.600;2023-04-15T09:33:29;2.15;;;1.42;;
51836;SDS011;38941;53.254;6.600;2023-04-15T09:35:30;1.35;;;1.00;;
51836;SDS011;38941;53.254;6.600;2023-04-15T09:37:34;2.17;;;1.23;;
51836;SDS011;38941;53.254;6.600;2023-04-15T09:39:44;2.08;;;1.05;;
51836;SDS011;38941;53.254;6.600;2023-04-15T09:41:51;1.60;;;0.95;;
51836;SDS011;38941;53.254;6.600;2023-04-15T09:44:04;11.23;;;1.70;;
51836;SDS011;38941;53.254;6.600;2023-04-15T09:46:05;2.40;;;1.15;;
51836;SDS011;38941;53.254;6.600;2023-04-15T09:48:19;4.15;;;1.10;;
51836;SDS011;38941;53.254;6.600;2023-04-15T09:52:52;3.10;;;1.50;;
51836;SDS011;38941;53.254;6.600;2023-04-15T09:54:59;4.95;;;1.50;;
51836;SDS011;38941;53.254;6.600;2023-04-15T09:57:10;2.25;;;1.40;;
51836;SDS011;38941;53.254;6.600;2023-04-15T09:59:18;1.52;;;0.80;;
51836;SDS011;38941;53.254;6.600;2023-04-15T10:03:37;1.83;;;0.90;;
51836;SDS011;38941;53.254;6.600;2023-04-15T10:05:41;2.55;;;0.98;;
51836;SDS011;38941;53.254;6.600;2023-04-15T10:07:42;1.85;;;0.73;;
51836;SDS011;38941;53.254;6.600;2023-04-15T10:09:44;3.22;;;1.58;;
51836;SDS011;38941;53.254;6.600;2023-04-15T10:11:46;4.85;;;1.40;;
51836;SDS011;38941;53.254;6.600;2023-04-15T10:13:51;4.47;;;1.42;;
51836;SDS011;38941;53.254;6.600;2023-04-15T10:18:06;4.97;;;1.20;;
51836;SDS011;38941;53.254;6.600;2023-04-15T10:20:09;3.72;;;1.77;;
51836;SDS011;38941;53.254;6.600;2023-04-15T10:22:12;4.90;;;1.40;;
51836;SDS011;38941;53.254;6.600;2023-04-15T10:24:13;4.22;;;1.50;;
51836;SDS011;38941;53.254;6.600;2023-04-15T10:26:16;9.30;;;2.15;;
51836;SDS011;38941;53.254;6.600;2023-04-15T10:28:18;3.08;;;1.52;;
51836;SDS011;38941;53.254;6.600;2023-04-15T10:30:21;5.97;;;1.20;;
51836;SDS011;38941;53.254;6.600;2023-04-15T10:32:23;3.47;;;1.10;;
51836;SDS011;38941;53.254;6.600;2023-04-15T10:34:25;5.85;;;1.40;;
51836;SDS011;38941;53.254;6.600;2023-04-15T10:36:27;7.38;;;2.22;;
51836;SDS011;38941;53.254;6.600;2023-04-15T10:38:38;4.03;;;1.60;;
51836;SDS011;38941;53.254;6.600;2023-04-15T10:40:43;9.15;;;2.25;;
51836;SDS011;38941;53.254;6.600;2023-04-15T10:42:44;5.28;;;1.83;;
51836;SDS011;38941;53.254;6.600;2023-04-15T10:44:50;6.50;;;1.83;;
51836;SDS011;38941;53.254;6.600;2023-04-15T10:46:56;7.78;;;1.70;;
51836;SDS011;38941;53.254;6.600;2023-04-15T10:48:57;4.53;;;1.40;;
51836;SDS011;38941;53.254;6.600;2023-04-15T10:51:12;3.70;;;1.77;;
51836;SDS011;38941;53.254;6.600;2023-04-15T10:53:19;5.57;;;1.90;;
51836;SDS011;38941;53.254;6.600;2023-04-15T10:55:30;7.40;;;1.40;;
51836;SDS011;38941;53.254;6.600;2023-04-15T10:57:36;2.55;;;1.67;;
51836;SDS011;38941;53.254;6.600;2023-04-15T10:59:58;7.38;;;1.95;;
51836;SDS011;38941;53.254;6.600;2023-04-15T11:02:08;4.63;;;1.55;;
51836;SDS011;38941;53.254;6.600;2023-04-15T11:04:13;4.18;;;1.55;;
51836;SDS011;38941;53.254;6.600;2023-04-15T11:06:21;9.88;;;1.40;;
51836;SDS011;38941;53.254;6.600;2023-04-15T11:10:57;4.00;;;1.27;;
51836;SDS011;38941;53.254;6.600;2023-04-15T11:17:39;9.43;;;1.88;;
51836;SDS011;38941;53.254;6.600;2023-04-15T11:19:41;5.75;;;1.50;;
51836;SDS011;38941;53.254;6.600;2023-04-15T11:23:58;4.03;;;1.75;;
51836;SDS011;38941;53.254;6.600;2023-04-15T11:26:01;7.68;;;1.58;;
51836;SDS011;38941;53.254;6.600;2023-04-15T11:28:12;7.38;;;1.20;;
51836;SDS011;38941;53.254;6.600;2023-04-15T11:30:19;5.82;;;1.30;;
51836;SDS011;38941;53.254;6.600;2023-04-15T11:32:21;13.32;;;2.70;;
51836;SDS011;38941;53.254;6.600;2023-04-15T11:34:24;7.25;;;1.85;;
51836;SDS011;38941;53.254;6.600;2023-04-15T11:36:26;6.15;;;1.30;;
51836;SDS011;38941;53.254;6.600;2023-04-15T11:38:30;5.30;;;1.23;;
51836;SDS011;38941;53.254;6.600;2023-04-15T11:40:33;8.15;;;2.00;;
51836;SDS011;38941;53.254;6.600;2023-04-15T11:42:36;3.92;;;1.08;;
51836;SDS011;38941;53.254;6.600;2023-04-15T11:44:37;9.48;;;2.17;;
51836;SDS011;38941;53.254;6.600;2023-04-15T11:46:39;11.27;;;1.80;;
51836;SDS011;38941;53.254;6.600;2023-04-15T11:48:43;8.18;;;1.40;;
51836;SDS011;38941;53.254;6.600;2023-04-15T11:50:51;8.52;;;1.80;;
51836;SDS011;38941;53.254;6.600;2023-04-15T11:53:01;4.72;;;1.30;;
51836;SDS011;38941;53.254;6.600;2023-04-15T11:55:03;4.88;;;1.30;;
51836;SDS011;38941;53.254;6.600;2023-04-15T11:57:07;13.00;;;2.30;;
51836;SDS011;38941;53.254;6.600;2023-04-15T11:59:09;11.48;;;1.85;;
51836;SDS011;38941;53.254;6.600;2023-04-15T12:01:11;6.38;;;1.20;;
51836;SDS011;38941;53.254;6.600;2023-04-15T12:03:25;3.55;;;1.20;;
51836;SDS011;38941;53.254;6.600;2023-04-15T12:05:31;4.00;;;1.10;;
51836;SDS011;38941;53.254;6.600;2023-04-15T12:07:34;5.45;;;1.52;;
51836;SDS011;38941;53.254;6.600;2023-04-15T12:09:57;2.33;;;0.82;;
51836;SDS011;38941;53.254;6.600;2023-04-15T12:11:59;5.65;;;1.27;;
51836;SDS011;38941;53.254;6.600;2023-04-15T12:14:10;6.55;;;1.33;;
51836;SDS011;38941;53.254;6.600;2023-04-15T12:16:18;4.20;;;0.98;;
51836;SDS011;38941;53.254;6.600;2023-04-15T12:18:19;10.52;;;1.60;;
51836;SDS011;38941;53.254;6.600;2023-04-15T12:20:24;9.70;;;1.42;;
51836;SDS011;38941;53.254;6.600;2023-04-15T12:22:26;4.45;;;1.27;;
51836;SDS011;38941;53.254;6.600;2023-04-15T12:24:31;12.30;;;1.55;;
51836;SDS011;38941;53.254;6.600;2023-04-15T12:26:34;5.95;;;1.10;;
51836;SDS011;38941;53.254;6.600;2023-04-15T12:28:45;10.32;;;1.50;;
51836;SDS011;38941;53.254;6.600;2023-04-15T12:30:47;5.20;;;1.17;;
51836;SDS011;38941;53.254;6.600;2023-04-15T12:32:51;6.28;;;1.30;;
51836;SDS011;38941;53.254;6.600;2023-04-15T12:34:52;5.97;;;1.00;;
51836;SDS011;38941;53.254;6.600;2023-04-15T12:36:59;6.13;;;1.08;;